sensor_id;sensor_type;location;lat;lon;timestamp;temperature;humidity
58529;DHT22;44322;52.968;5.816;2022-10-16T00:01:52;13.10;99.90
58529;DHT22;44322;52.968;5.816;2022-10-16T00:04:17;13.10;99.90
58529;DHT22;44322;52.968;5.816;2022-10-16T00:06:43;13.00;99.90
58529;DHT22;44322;52.968;5.816;2022-10-16T00:09:09;13.00;99.90
58529;DHT22;44322;52.968;5.816;2022-10-16T00:11:38;13.00;99.90
58529;DHT22;44322;52.968;5.816;2022-10-16T00:14:11;13.00;99.90
58529;DHT22;44322;52.968;5.816;2022-10-16T00:16:37;13.00;99.90
58529;DHT22;44322;52.968;5.816;2022-10-16T00:19:03;13.00;99.90
58529;DHT22;44322;52.968;5.816;2022-10-16T00:21:31;13.00;99.90
58529;DHT22;44322;52.968;5.816;2022-10-16T00:24:03;13.00;99.90
58529;DHT22;44322;52.968;5.816;2022-10-16T00:26:32;13.00;99.90
58529;DHT22;44322;52.968;5.816;2022-10-16T00:28:59;13.00;99.90
58529;DHT22;44322;52.968;5.816;2022-10-16T00:31:25;13.10;99.90
58529;DHT22;44322;52.968;5.816;2022-10-16T00:33:52;13.10;99.90
58529;DHT22;44322;52.968;5.816;2022-10-16T00:36:21;13.10;99.90
58529;DHT22;44322;52.968;5.816;2022-10-16T00:38:49;13.10;99.90
58529;DHT22;44322;52.968;5.816;2022-10-16T00:41:17;13.10;99.90
58529;DHT22;44322;52.968;5.816;2022-10-16T00:43:52;13.10;99.90
58529;DHT22;44322;52.968;5.816;2022-10-16T00:46:35;13.10;99.90
58529;DHT22;44322;52.968;5.816;2022-10-16T00:49:12;13.20;99.90
58529;DHT22;44322;52.968;5.816;2022-10-16T00:51:48;13.20;99.90
58529;DHT22;44322;52.968;5.816;2022-10-16T00:54:19;13.20;99.90
58529;DHT22;44322;52.968;5.816;2022-10-16T00:56:47;13.20;99.90
58529;DHT22;44322;52.968;5.816;2022-10-16T00:59:25;13.20;99.90
58529;DHT22;44322;52.968;5.816;2022-10-16T01:01:53;13.20;99.90
58529;DHT22;44322;52.968;5.816;2022-10-16T01:04:20;13.30;99.90
58529;DHT22;44322;52.968;5.816;2022-10-16T01:07:10;13.20;99.90
58529;DHT22;44322;52.968;5.816;2022-10-16T01:12:28;13.20;99.90
58529;DHT22;44322;52.968;5.816;2022-10-16T01:15:27;13.30;99.90
58529;DHT22;44322;52.968;5.816;2022-10-16T01:21:10;13.20;99.90
58529;DHT22;44322;52.968;5.816;2022-10-16T01:26:40;13.20;99.90
58529;DHT22;44322;52.968;5.816;2022-10-16T01:29:15;13.20;99.90
58529;DHT22;44322;52.968;5.816;2022-10-16T01:31:45;13.20;99.90
58529;DHT22;44322;52.968;5.816;2022-10-16T01:34:45;13.20;99.90
58529;DHT22;44322;52.968;5.816;2022-10-16T01:37:16;13.20;99.90
58529;DHT22;44322;52.968;5.816;2022-10-16T01:39:47;13.20;99.90
58529;DHT22;44322;52.968;5.816;2022-10-16T01:42:20;13.20;99.90
58529;DHT22;44322;52.968;5.816;2022-10-16T01:44:49;13.20;99.90
58529;DHT22;44322;52.968;5.816;2022-10-16T01:47:17;13.20;99.90
58529;DHT22;44322;52.968;5.816;2022-10-16T01:49:45;13.20;99.90
58529;DHT22;44322;52.968;5.816;2022-10-16T01:52:15;13.20;99.90
58529;DHT22;44322;52.968;5.816;2022-10-16T01:54:46;13.20;99.90
58529;DHT22;44322;52.968;5.816;2022-10-16T01:57:14;13.20;99.90
58529;DHT22;44322;52.968;5.816;2022-10-16T01:59:47;13.20;99.90
58529;DHT22;44322;52.968;5.816;2022-10-16T02:02:15;13.20;99.90
58529;DHT22;44322;52.968;5.816;2022-10-16T02:04:48;13.20;99.90
58529;DHT22;44322;52.968;5.816;2022-10-16T02:07:15;13.20;99.90
58529;DHT22;44322;52.968;5.816;2022-10-16T02:09:42;13.20;99.90
58529;DHT22;44322;52.968;5.816;2022-10-16T02:12:21;13.20;99.90
58529;DHT22;44322;52.968;5.816;2022-10-16T02:14:49;13.20;99.90
58529;DHT22;44322;52.968;5.816;2022-10-16T02:17:17;13.20;99.90
58529;DHT22;44322;52.968;5.816;2022-10-16T02:19:44;13.10;99.90
58529;DHT22;44322;52.968;5.816;2022-10-16T02:22:37;13.10;99.90
58529;DHT22;44322;52.968;5.816;2022-10-16T02:25:19;13.10;99.90
58529;DHT22;44322;52.968;5.816;2022-10-16T02:33:08;13.00;99.90
58529;DHT22;44322;52.968;5.816;2022-10-16T02:35:35;13.00;99.90
58529;DHT22;44322;52.968;5.816;2022-10-16T02:38:03;13.00;99.90
58529;DHT22;44322;52.968;5.816;2022-10-16T02:40:29;13.00;99.90
58529;DHT22;44322;52.968;5.816;2022-10-16T02:42:55;12.90;99.90
58529;DHT22;44322;52.968;5.816;2022-10-16T02:45:22;12.90;99.90
58529;DHT22;44322;52.968;5.816;2022-10-16T02:47:48;12.90;99.90
58529;DHT22;44322;52.968;5.816;2022-10-16T02:50:14;12.80;99.90
58529;DHT22;44322;52.968;5.816;2022-10-16T02:52:40;12.80;99.90
58529;DHT22;44322;52.968;5.816;2022-10-16T02:55:06;12.80;99.90
58529;DHT22;44322;52.968;5.816;2022-10-16T02:57:32;12.80;99.90
58529;DHT22;44322;52.968;5.816;2022-10-16T02:59:58;12.80;99.90
58529;DHT22;44322;52.968;5.816;2022-10-16T03:02:24;12.80;99.90
58529;DHT22;44322;52.968;5.816;2022-10-16T03:04:50;12.80;99.90
58529;DHT22;44322;52.968;5.816;2022-10-16T03:07:16;12.80;99.90
58529;DHT22;44322;52.968;5.816;2022-10-16T03:09:42;12.80;99.90
58529;DHT22;44322;52.968;5.816;2022-10-16T03:12:08;12.90;99.90
58529;DHT22;44322;52.968;5.816;2022-10-16T03:14:34;12.90;99.90
58529;DHT22;44322;52.968;5.816;2022-10-16T03:16:59;12.90;99.90
58529;DHT22;44322;52.968;5.816;2022-10-16T03:19:25;13.00;99.90
58529;DHT22;44322;52.968;5.816;2022-10-16T03:21:51;13.00;99.90
58529;DHT22;44322;52.968;5.816;2022-10-16T03:24:17;13.10;99.90
58529;DHT22;44322;52.968;5.816;2022-10-16T03:26:43;13.10;99.90
58529;DHT22;44322;52.968;5.816;2022-10-16T03:29:09;13.10;99.90
58529;DHT22;44322;52.968;5.816;2022-10-16T03:31:35;13.10;99.90
58529;DHT22;44322;52.968;5.816;2022-10-16T03:34:00;13.10;99.90
58529;DHT22;44322;52.968;5.816;2022-10-16T03:36:26;13.10;99.90
58529;DHT22;44322;52.968;5.816;2022-10-16T03:38:52;13.10;99.90
58529;DHT22;44322;52.968;5.816;2022-10-16T03:41:18;13.10;99.90
58529;DHT22;44322;52.968;5.816;2022-10-16T03:43:44;13.00;99.90
58529;DHT22;44322;52.968;5.816;2022-10-16T03:46:09;13.00;99.90
58529;DHT22;44322;52.968;5.816;2022-10-16T03:48:35;13.00;99.90
58529;DHT22;44322;52.968;5.816;2022-10-16T03:51:01;13.00;99.90
58529;DHT22;44322;52.968;5.816;2022-10-16T03:53:27;13.00;99.90
58529;DHT22;44322;52.968;5.816;2022-10-16T03:55:53;13.00;99.90
58529;DHT22;44322;52.968;5.816;2022-10-16T03:58:19;13.00;99.90
58529;DHT22;44322;52.968;5.816;2022-10-16T04:00:46;13.10;99.90
58529;DHT22;44322;52.968;5.816;2022-10-16T04:03:13;13.00;99.90
58529;DHT22;44322;52.968;5.816;2022-10-16T04:05:39;13.00;99.90
58529;DHT22;44322;52.968;5.816;2022-10-16T04:08:05;13.00;99.90
58529;DHT22;44322;52.968;5.816;2022-10-16T04:10:31;13.00;99.90
58529;DHT22;44322;52.968;5.816;2022-10-16T04:12:57;13.00;99.90
58529;DHT22;44322;52.968;5.816;2022-10-16T04:15:24;13.10;99.90
58529;DHT22;44322;52.968;5.816;2022-10-16T04:17:51;13.10;99.90
58529;DHT22;44322;52.968;5.816;2022-10-16T04:20:17;13.10;99.90
58529;DHT22;44322;52.968;5.816;2022-10-16T04:22:43;13.20;99.90
58529;DHT22;44322;52.968;5.816;2022-10-16T04:25:09;13.20;99.90
58529;DHT22;44322;52.968;5.816;2022-10-16T04:27:35;13.20;99.90
58529;DHT22;44322;52.968;5.816;2022-10-16T04:30:01;13.30;99.90
58529;DHT22;44322;52.968;5.816;2022-10-16T04:32:26;13.30;99.90
58529;DHT22;44322;52.968;5.816;2022-10-16T04:34:52;13.20;99.90
58529;DHT22;44322;52.968;5.816;2022-10-16T04:37:19;13.30;99.90
58529;DHT22;44322;52.968;5.816;2022-10-16T04:39:44;13.30;99.90
58529;DHT22;44322;52.968;5.816;2022-10-16T04:42:11;13.30;99.90
58529;DHT22;44322;52.968;5.816;2022-10-16T04:44:37;13.30;99.90
58529;DHT22;44322;52.968;5.816;2022-10-16T04:47:02;13.30;99.90
58529;DHT22;44322;52.968;5.816;2022-10-16T04:49:29;13.30;99.90
58529;DHT22;44322;52.968;5.816;2022-10-16T04:51:55;13.30;99.90
58529;DHT22;44322;52.968;5.816;2022-10-16T04:54:21;13.30;99.90
58529;DHT22;44322;52.968;5.816;2022-10-16T04:56:47;13.30;99.90
58529;DHT22;44322;52.968;5.816;2022-10-16T04:59:14;13.30;99.90
58529;DHT22;44322;52.968;5.816;2022-10-16T05:01:40;13.30;99.90
58529;DHT22;44322;52.968;5.816;2022-10-16T05:04:06;13.30;99.90
58529;DHT22;44322;52.968;5.816;2022-10-16T05:06:32;13.30;99.90
58529;DHT22;44322;52.968;5.816;2022-10-16T05:08:58;13.40;99.90
58529;DHT22;44322;52.968;5.816;2022-10-16T05:11:24;13.30;99.90
58529;DHT22;44322;52.968;5.816;2022-10-16T05:13:50;13.40;99.90
58529;DHT22;44322;52.968;5.816;2022-10-16T05:16:16;13.40;99.90
58529;DHT22;44322;52.968;5.816;2022-10-16T05:18:42;13.40;99.90
58529;DHT22;44322;52.968;5.816;2022-10-16T05:21:07;13.40;99.90
58529;DHT22;44322;52.968;5.816;2022-10-16T05:23:33;13.40;99.90
58529;DHT22;44322;52.968;5.816;2022-10-16T05:26:00;13.40;99.90
58529;DHT22;44322;52.968;5.816;2022-10-16T05:28:27;13.40;99.90
58529;DHT22;44322;52.968;5.816;2022-10-16T05:30:53;13.40;99.90
58529;DHT22;44322;52.968;5.816;2022-10-16T05:33:20;13.40;99.90
58529;DHT22;44322;52.968;5.816;2022-10-16T05:35:47;13.40;99.90
58529;DHT22;44322;52.968;5.816;2022-10-16T05:38:13;13.40;99.90
58529;DHT22;44322;52.968;5.816;2022-10-16T05:40:39;13.40;99.90
58529;DHT22;44322;52.968;5.816;2022-10-16T05:43:05;13.40;99.90
58529;DHT22;44322;52.968;5.816;2022-10-16T05:45:30;13.40;99.90
58529;DHT22;44322;52.968;5.816;2022-10-16T05:47:56;13.40;99.90
58529;DHT22;44322;52.968;5.816;2022-10-16T05:50:22;13.40;99.90
58529;DHT22;44322;52.968;5.816;2022-10-16T05:52:48;13.40;99.90
58529;DHT22;44322;52.968;5.816;2022-10-16T05:55:14;13.50;99.90
58529;DHT22;44322;52.968;5.816;2022-10-16T05:57:40;13.50;99.90
58529;DHT22;44322;52.968;5.816;2022-10-16T06:00:07;13.50;99.90
58529;DHT22;44322;52.968;5.816;2022-10-16T06:02:38;13.50;99.90
58529;DHT22;44322;52.968;5.816;2022-10-16T06:05:04;13.60;99.90
58529;DHT22;44322;52.968;5.816;2022-10-16T06:07:34;13.60;99.90
58529;DHT22;44322;52.968;5.816;2022-10-16T06:10:01;13.60;99.90
58529;DHT22;44322;52.968;5.816;2022-10-16T06:12:27;13.60;99.90
58529;DHT22;44322;52.968;5.816;2022-10-16T06:14:52;13.60;99.90
58529;DHT22;44322;52.968;5.816;2022-10-16T06:17:21;13.60;99.90
58529;DHT22;44322;52.968;5.816;2022-10-16T06:19:47;13.60;99.90
58529;DHT22;44322;52.968;5.816;2022-10-16T06:22:12;13.60;99.90
58529;DHT22;44322;52.968;5.816;2022-10-16T06:24:38;13.60;99.90
58529;DHT22;44322;52.968;5.816;2022-10-16T06:27:05;13.60;99.90
58529;DHT22;44322;52.968;5.816;2022-10-16T06:29:30;13.60;99.90
58529;DHT22;44322;52.968;5.816;2022-10-16T06:31:56;13.60;99.90
58529;DHT22;44322;52.968;5.816;2022-10-16T06:34:22;13.60;99.90
58529;DHT22;44322;52.968;5.816;2022-10-16T06:36:48;13.60;99.90
58529;DHT22;44322;52.968;5.816;2022-10-16T06:39:14;13.60;99.90
58529;DHT22;44322;52.968;5.816;2022-10-16T06:41:40;13.50;99.90
58529;DHT22;44322;52.968;5.816;2022-10-16T06:44:15;13.50;99.90
58529;DHT22;44322;52.968;5.816;2022-10-16T06:46:41;13.50;99.90
58529;DHT22;44322;52.968;5.816;2022-10-16T06:49:06;13.50;99.90
58529;DHT22;44322;52.968;5.816;2022-10-16T06:51:32;13.50;99.90
58529;DHT22;44322;52.968;5.816;2022-10-16T06:54:01;13.50;99.90
58529;DHT22;44322;52.968;5.816;2022-10-16T06:56:27;13.50;99.90
58529;DHT22;44322;52.968;5.816;2022-10-16T06:58:55;13.40;99.90
58529;DHT22;44322;52.968;5.816;2022-10-16T07:01:23;13.40;99.90
58529;DHT22;44322;52.968;5.816;2022-10-16T07:03:49;13.40;99.90
58529;DHT22;44322;52.968;5.816;2022-10-16T07:06:18;13.40;99.90
58529;DHT22;44322;52.968;5.816;2022-10-16T07:08:45;13.40;99.90
58529;DHT22;44322;52.968;5.816;2022-10-16T07:11:17;13.50;99.90
58529;DHT22;44322;52.968;5.816;2022-10-16T07:13:44;13.50;99.90
58529;DHT22;44322;52.968;5.816;2022-10-16T07:16:13;13.50;99.90
58529;DHT22;44322;52.968;5.816;2022-10-16T07:18:40;13.60;99.90
58529;DHT22;44322;52.968;5.816;2022-10-16T07:21:10;13.60;99.90
58529;DHT22;44322;52.968;5.816;2022-10-16T07:23:37;13.70;99.90
58529;DHT22;44322;52.968;5.816;2022-10-16T07:26:03;13.70;99.90
58529;DHT22;44322;52.968;5.816;2022-10-16T07:28:30;13.80;99.90
58529;DHT22;44322;52.968;5.816;2022-10-16T07:31:04;13.80;99.90
58529;DHT22;44322;52.968;5.816;2022-10-16T07:33:31;13.90;99.90
58529;DHT22;44322;52.968;5.816;2022-10-16T07:35:57;13.90;99.90
58529;DHT22;44322;52.968;5.816;2022-10-16T07:38:23;13.90;99.90
58529;DHT22;44322;52.968;5.816;2022-10-16T07:40:56;13.90;99.90
58529;DHT22;44322;52.968;5.816;2022-10-16T07:43:23;13.90;99.90
58529;DHT22;44322;52.968;5.816;2022-10-16T07:45:49;13.90;99.90
58529;DHT22;44322;52.968;5.816;2022-10-16T07:48:16;13.90;99.90
58529;DHT22;44322;52.968;5.816;2022-10-16T07:50:44;14.00;99.90
58529;DHT22;44322;52.968;5.816;2022-10-16T07:53:10;14.00;99.90
58529;DHT22;44322;52.968;5.816;2022-10-16T07:55:37;14.00;99.90
58529;DHT22;44322;52.968;5.816;2022-10-16T07:58:03;14.00;99.90
58529;DHT22;44322;52.968;5.816;2022-10-16T08:00:30;14.10;99.90
58529;DHT22;44322;52.968;5.816;2022-10-16T08:02:59;14.10;99.90
58529;DHT22;44322;52.968;5.816;2022-10-16T08:05:27;14.10;99.90
58529;DHT22;44322;52.968;5.816;2022-10-16T08:07:53;14.10;99.90
58529;DHT22;44322;52.968;5.816;2022-10-16T08:10:20;14.10;99.90
58529;DHT22;44322;52.968;5.816;2022-10-16T08:12:46;14.10;99.90
58529;DHT22;44322;52.968;5.816;2022-10-16T08:15:12;14.10;99.90
58529;DHT22;44322;52.968;5.816;2022-10-16T08:17:38;14.10;99.90
58529;DHT22;44322;52.968;5.816;2022-10-16T08:20:04;14.20;99.90
58529;DHT22;44322;52.968;5.816;2022-10-16T08:22:30;14.20;99.90
58529;DHT22;44322;52.968;5.816;2022-10-16T08:24:56;14.20;99.90
58529;DHT22;44322;52.968;5.816;2022-10-16T08:27:22;14.20;99.90
58529;DHT22;44322;52.968;5.816;2022-10-16T08:29:49;14.20;99.90
58529;DHT22;44322;52.968;5.816;2022-10-16T08:32:15;14.20;99.90
58529;DHT22;44322;52.968;5.816;2022-10-16T08:34:41;14.30;99.90
58529;DHT22;44322;52.968;5.816;2022-10-16T08:37:07;14.30;99.90
58529;DHT22;44322;52.968;5.816;2022-10-16T08:39:36;14.30;99.90
58529;DHT22;44322;52.968;5.816;2022-10-16T08:47:35;14.50;99.90
58529;DHT22;44322;52.968;5.816;2022-10-16T08:50:10;14.60;99.90
58529;DHT22;44322;52.968;5.816;2022-10-16T08:52:40;14.60;99.90
58529;DHT22;44322;52.968;5.816;2022-10-16T08:55:20;14.60;99.90
58529;DHT22;44322;52.968;5.816;2022-10-16T08:57:50;14.60;99.90
58529;DHT22;44322;52.968;5.816;2022-10-16T09:00:16;14.60;99.90
58529;DHT22;44322;52.968;5.816;2022-10-16T09:08:37;15.40;99.90
58529;DHT22;44322;52.968;5.816;2022-10-16T09:22:35;16.60;99.90
58529;DHT22;44322;52.968;5.816;2022-10-16T09:25:12;16.70;99.90
58529;DHT22;44322;52.968;5.816;2022-10-16T09:27:40;16.80;99.90
58529;DHT22;44322;52.968;5.816;2022-10-16T09:30:16;17.00;99.90
58529;DHT22;44322;52.968;5.816;2022-10-16T09:32:44;17.10;99.90
58529;DHT22;44322;52.968;5.816;2022-10-16T09:35:21;17.20;99.90
58529;DHT22;44322;52.968;5.816;2022-10-16T09:37:58;17.40;99.90
58529;DHT22;44322;52.968;5.816;2022-10-16T09:43:54;17.40;99.90
58529;DHT22;44322;52.968;5.816;2022-10-16T09:46:32;17.50;99.90
58529;DHT22;44322;52.968;5.816;2022-10-16T09:49:04;17.50;99.90
58529;DHT22;44322;52.968;5.816;2022-10-16T09:51:33;17.60;99.90
58529;DHT22;44322;52.968;5.816;2022-10-16T09:54:14;17.60;99.90
58529;DHT22;44322;52.968;5.816;2022-10-16T09:56:40;17.50;99.90
58529;DHT22;44322;52.968;5.816;2022-10-16T09:59:12;17.60;99.90
58529;DHT22;44322;52.968;5.816;2022-10-16T10:01:47;17.60;99.90
58529;DHT22;44322;52.968;5.816;2022-10-16T10:04:14;17.60;99.90
58529;DHT22;44322;52.968;5.816;2022-10-16T10:06:51;17.60;99.90
58529;DHT22;44322;52.968;5.816;2022-10-16T10:09:23;17.60;99.90
58529;DHT22;44322;52.968;5.816;2022-10-16T10:14:37;17.60;99.90
58529;DHT22;44322;52.968;5.816;2022-10-16T10:17:17;17.60;99.90
58529;DHT22;44322;52.968;5.816;2022-10-16T10:19:58;17.60;99.90
58529;DHT22;44322;52.968;5.816;2022-10-16T10:30:56;17.80;99.90
58529;DHT22;44322;52.968;5.816;2022-10-16T10:33:41;17.90;99.90
58529;DHT22;44322;52.968;5.816;2022-10-16T10:36:28;17.90;99.90
58529;DHT22;44322;52.968;5.816;2022-10-16T10:44:33;18.10;99.90
58529;DHT22;44322;52.968;5.816;2022-10-16T10:58:51;18.50;99.90
58529;DHT22;44322;52.968;5.816;2022-10-16T11:07:36;18.60;99.90
58529;DHT22;44322;52.968;5.816;2022-10-16T11:10:09;18.70;99.90
58529;DHT22;44322;52.968;5.816;2022-10-16T11:12:45;18.80;99.90
58529;DHT22;44322;52.968;5.816;2022-10-16T11:15:27;18.80;99.90
58529;DHT22;44322;52.968;5.816;2022-10-16T11:21:22;18.80;99.90
58529;DHT22;44322;52.968;5.816;2022-10-16T11:27:42;18.30;99.90
58529;DHT22;44322;52.968;5.816;2022-10-16T11:30:29;18.10;99.90
58529;DHT22;44322;52.968;5.816;2022-10-16T11:38:04;17.90;99.90
58529;DHT22;44322;52.968;5.816;2022-10-16T11:40:37;17.80;99.90
58529;DHT22;44322;52.968;5.816;2022-10-16T11:43:17;17.80;99.90
58529;DHT22;44322;52.968;5.816;2022-10-16T11:45:50;17.80;99.90
58529;DHT22;44322;52.968;5.816;2022-10-16T11:48:23;17.90;99.90
58529;DHT22;44322;52.968;5.816;2022-10-16T11:51:02;17.90;99.90
58529;DHT22;44322;52.968;5.816;2022-10-16T11:53:50;17.70;99.90
58529;DHT22;44322;52.968;5.816;2022-10-16T11:56:20;17.70;99.90
58529;DHT22;44322;52.968;5.816;2022-10-16T12:01:43;17.60;99.90
58529;DHT22;44322;52.968;5.816;2022-10-16T12:04:33;17.60;99.90
58529;DHT22;44322;52.968;5.816;2022-10-16T12:07:07;17.60;99.90
58529;DHT22;44322;52.968;5.816;2022-10-16T12:09:39;17.70;99.90
58529;DHT22;44322;52.968;5.816;2022-10-16T12:12:39;17.70;99.90
58529;DHT22;44322;52.968;5.816;2022-10-16T12:17:42;17.80;99.90
58529;DHT22;44322;52.968;5.816;2022-10-16T12:22:57;18.00;99.90
58529;DHT22;44322;52.968;5.816;2022-10-16T12:30:37;18.00;99.90
58529;DHT22;44322;52.968;5.816;2022-10-16T12:33:25;18.10;99.90
58529;DHT22;44322;52.968;5.816;2022-10-16T12:35:52;18.20;99.90
58529;DHT22;44322;52.968;5.816;2022-10-16T12:38:35;18.30;99.90
58529;DHT22;44322;52.968;5.816;2022-10-16T12:41:07;18.40;99.90
58529;DHT22;44322;52.968;5.816;2022-10-16T12:43:45;18.30;99.90
58529;DHT22;44322;52.968;5.816;2022-10-16T12:48:43;18.00;99.90
58529;DHT22;44322;52.968;5.816;2022-10-16T12:51:25;17.90;99.90
58529;DHT22;44322;52.968;5.816;2022-10-16T12:53:59;17.70;99.90
58529;DHT22;44322;52.968;5.816;2022-10-16T13:09:46;17.40;99.90
58529;DHT22;44322;52.968;5.816;2022-10-16T13:23:47;17.80;99.90
58529;DHT22;44322;52.968;5.816;2022-10-16T13:28:53;18.10;99.90
58529;DHT22;44322;52.968;5.816;2022-10-16T13:31:22;18.30;99.90
58529;DHT22;44322;52.968;5.816;2022-10-16T13:33:51;18.30;99.90
58529;DHT22;44322;52.968;5.816;2022-10-16T13:36:26;18.40;99.90
58529;DHT22;44322;52.968;5.816;2022-10-16T13:39:30;18.50;99.90
58529;DHT22;44322;52.968;5.816;2022-10-16T13:42:05;18.50;99.90
58529;DHT22;44322;52.968;5.816;2022-10-16T13:44:46;18.40;99.90
58529;DHT22;44322;52.968;5.816;2022-10-16T13:47:17;18.40;99.90
58529;DHT22;44322;52.968;5.816;2022-10-16T13:49:43;18.30;99.90
58529;DHT22;44322;52.968;5.816;2022-10-16T13:52:20;18.20;99.90
58529;DHT22;44322;52.968;5.816;2022-10-16T13:54:47;18.30;99.90
58529;DHT22;44322;52.968;5.816;2022-10-16T13:57:17;18.20;99.90
58529;DHT22;44322;52.968;5.816;2022-10-16T13:59:43;18.20;99.90
58529;DHT22;44322;52.968;5.816;2022-10-16T14:02:25;18.30;99.90
58529;DHT22;44322;52.968;5.816;2022-10-16T14:04:53;18.50;99.90
58529;DHT22;44322;52.968;5.816;2022-10-16T14:07:28;18.70;99.90
58529;DHT22;44322;52.968;5.816;2022-10-16T14:09:55;18.80;99.90
58529;DHT22;44322;52.968;5.816;2022-10-16T14:12:23;18.80;99.90
58529;DHT22;44322;52.968;5.816;2022-10-16T14:14:52;18.70;99.90
58529;DHT22;44322;52.968;5.816;2022-10-16T14:17:24;18.60;99.90
58529;DHT22;44322;52.968;5.816;2022-10-16T14:19:53;18.50;99.90
58529;DHT22;44322;52.968;5.816;2022-10-16T14:22:37;18.40;99.90
58529;DHT22;44322;52.968;5.816;2022-10-16T14:25:33;18.30;99.90
58529;DHT22;44322;52.968;5.816;2022-10-16T14:30:26;18.20;99.90
58529;DHT22;44322;52.968;5.816;2022-10-16T14:32:54;18.10;99.90
58529;DHT22;44322;52.968;5.816;2022-10-16T14:35:32;18.00;99.90
58529;DHT22;44322;52.968;5.816;2022-10-16T14:37:59;18.00;99.90
58529;DHT22;44322;52.968;5.816;2022-10-16T14:40:29;17.90;99.90
58529;DHT22;44322;52.968;5.816;2022-10-16T14:42:56;17.80;99.90
58529;DHT22;44322;52.968;5.816;2022-10-16T14:45:28;17.70;99.90
58529;DHT22;44322;52.968;5.816;2022-10-16T14:48:06;17.70;99.90
58529;DHT22;44322;52.968;5.816;2022-10-16T14:50:40;17.60;99.90
58529;DHT22;44322;52.968;5.816;2022-10-16T14:53:12;17.50;99.90
58529;DHT22;44322;52.968;5.816;2022-10-16T14:55:39;17.50;99.90
58529;DHT22;44322;52.968;5.816;2022-10-16T14:58:09;17.50;99.90
58529;DHT22;44322;52.968;5.816;2022-10-16T15:00:39;17.50;99.90
58529;DHT22;44322;52.968;5.816;2022-10-16T15:03:05;17.50;99.90
58529;DHT22;44322;52.968;5.816;2022-10-16T15:05:31;17.40;99.90
58529;DHT22;44322;52.968;5.816;2022-10-16T15:07:58;17.40;99.90
58529;DHT22;44322;52.968;5.816;2022-10-16T15:10:26;17.40;99.90
58529;DHT22;44322;52.968;5.816;2022-10-16T15:12:53;17.30;99.90
58529;DHT22;44322;52.968;5.816;2022-10-16T15:17:52;17.30;99.90
58529;DHT22;44322;52.968;5.816;2022-10-16T15:20:21;17.30;99.90
58529;DHT22;44322;52.968;5.816;2022-10-16T15:22:47;17.30;99.90
58529;DHT22;44322;52.968;5.816;2022-10-16T15:25:33;17.20;99.90
58529;DHT22;44322;52.968;5.816;2022-10-16T15:28:00;17.20;99.90
58529;DHT22;44322;52.968;5.816;2022-10-16T15:30:27;17.20;99.90
58529;DHT22;44322;52.968;5.816;2022-10-16T15:32:53;17.10;99.90
58529;DHT22;44322;52.968;5.816;2022-10-16T15:35:19;17.10;99.90
58529;DHT22;44322;52.968;5.816;2022-10-16T15:37:46;17.00;99.90
58529;DHT22;44322;52.968;5.816;2022-10-16T15:40:12;16.90;99.90
58529;DHT22;44322;52.968;5.816;2022-10-16T15:42:38;16.90;99.90
58529;DHT22;44322;52.968;5.816;2022-10-16T15:45:09;16.80;99.90
58529;DHT22;44322;52.968;5.816;2022-10-16T15:47:38;16.80;99.90
58529;DHT22;44322;52.968;5.816;2022-10-16T15:50:06;16.70;99.90
58529;DHT22;44322;52.968;5.816;2022-10-16T15:52:33;16.70;99.90
58529;DHT22;44322;52.968;5.816;2022-10-16T15:55:00;16.60;99.90
58529;DHT22;44322;52.968;5.816;2022-10-16T15:57:28;16.60;99.90
58529;DHT22;44322;52.968;5.816;2022-10-16T15:59:54;16.50;99.90
58529;DHT22;44322;52.968;5.816;2022-10-16T16:02:20;16.50;99.90
58529;DHT22;44322;52.968;5.816;2022-10-16T16:04:46;16.40;99.90
58529;DHT22;44322;52.968;5.816;2022-10-16T16:07:12;16.30;99.90
58529;DHT22;44322;52.968;5.816;2022-10-16T16:09:38;16.20;99.90
58529;DHT22;44322;52.968;5.816;2022-10-16T16:12:04;16.20;99.90
58529;DHT22;44322;52.968;5.816;2022-10-16T16:14:30;16.10;99.90
58529;DHT22;44322;52.968;5.816;2022-10-16T16:16:57;16.10;99.90
58529;DHT22;44322;52.968;5.816;2022-10-16T16:19:23;16.00;99.90
58529;DHT22;44322;52.968;5.816;2022-10-16T16:21:50;15.90;99.90
58529;DHT22;44322;52.968;5.816;2022-10-16T16:24:16;15.90;99.90
58529;DHT22;44322;52.968;5.816;2022-10-16T16:26:42;15.80;99.90
58529;DHT22;44322;52.968;5.816;2022-10-16T16:29:13;15.70;99.90
58529;DHT22;44322;52.968;5.816;2022-10-16T16:31:40;15.70;99.90
58529;DHT22;44322;52.968;5.816;2022-10-16T16:34:06;15.60;99.90
58529;DHT22;44322;52.968;5.816;2022-10-16T16:36:33;15.50;99.90
58529;DHT22;44322;52.968;5.816;2022-10-16T16:39:00;15.50;99.90
58529;DHT22;44322;52.968;5.816;2022-10-16T16:41:28;15.40;99.90
58529;DHT22;44322;52.968;5.816;2022-10-16T16:44:00;15.40;99.90
58529;DHT22;44322;52.968;5.816;2022-10-16T16:46:26;15.30;99.90
58529;DHT22;44322;52.968;5.816;2022-10-16T16:48:52;15.30;99.90
58529;DHT22;44322;52.968;5.816;2022-10-16T16:51:21;15.20;99.90
58529;DHT22;44322;52.968;5.816;2022-10-16T16:53:49;15.20;99.90
58529;DHT22;44322;52.968;5.816;2022-10-16T16:56:17;15.10;99.90
58529;DHT22;44322;52.968;5.816;2022-10-16T16:58:56;15.10;99.90
58529;DHT22;44322;52.968;5.816;2022-10-16T17:01:26;15.00;99.90
58529;DHT22;44322;52.968;5.816;2022-10-16T17:03:54;15.00;99.90
58529;DHT22;44322;52.968;5.816;2022-10-16T17:06:22;14.90;99.90
58529;DHT22;44322;52.968;5.816;2022-10-16T17:08:48;14.80;99.90
58529;DHT22;44322;52.968;5.816;2022-10-16T17:11:17;14.80;99.90
58529;DHT22;44322;52.968;5.816;2022-10-16T17:13:44;14.80;99.90
58529;DHT22;44322;52.968;5.816;2022-10-16T17:16:12;14.70;99.90
58529;DHT22;44322;52.968;5.816;2022-10-16T17:18:41;14.70;99.90
58529;DHT22;44322;52.968;5.816;2022-10-16T17:21:09;14.60;99.90
58529;DHT22;44322;52.968;5.816;2022-10-16T17:23:36;14.60;99.90
58529;DHT22;44322;52.968;5.816;2022-10-16T17:26:13;14.50;99.90
58529;DHT22;44322;52.968;5.816;2022-10-16T17:28:40;14.50;99.90
58529;DHT22;44322;52.968;5.816;2022-10-16T17:31:15;14.50;99.90
58529;DHT22;44322;52.968;5.816;2022-10-16T17:33:42;14.40;99.90
58529;DHT22;44322;52.968;5.816;2022-10-16T17:36:08;14.40;99.90
58529;DHT22;44322;52.968;5.816;2022-10-16T17:38:35;14.30;99.90
58529;DHT22;44322;52.968;5.816;2022-10-16T17:41:16;14.30;99.90
58529;DHT22;44322;52.968;5.816;2022-10-16T17:43:49;14.30;99.90
58529;DHT22;44322;52.968;5.816;2022-10-16T17:47:02;14.20;99.90
58529;DHT22;44322;52.968;5.816;2022-10-16T17:49:37;14.20;99.90
58529;DHT22;44322;52.968;5.816;2022-10-16T17:52:05;14.10;99.90
58529;DHT22;44322;52.968;5.816;2022-10-16T17:54:33;14.10;99.90
58529;DHT22;44322;52.968;5.816;2022-10-16T17:57:16;14.10;99.90
58529;DHT22;44322;52.968;5.816;2022-10-16T17:59:42;14.10;99.90
58529;DHT22;44322;52.968;5.816;2022-10-16T18:02:09;14.00;99.90